Time;durP1;ratioP1;P1;durP2;ratioP2;P2;SDS_P1;SDS_P2;PMS_P1;PMS_P2;Temp;Humidity;BMP_temperature;BMP_pressure;BME280_temperature;BME280_humidity;BME280_pressure;Samples;Min_cycle;Max_cycle;Signal;HPM_P1;HPM_P2
2022/08/23 00:02:06;;;;;;;9.38;3.72;;;18.20;99.90;;;;;;5028115;28;20029;-66
2022/08/23 00:04:40;;;;;;;15.98;4.93;;;18.20;99.90;;;;;;5029620;28;21597;-66
2022/08/23 00:07:08;;;;;;;9.55;3.72;;;18.10;99.90;;;;;;5032988;28;20094;-66
2022/08/23 00:09:34;;;;;;;8.32;4.00;;;18.10;99.90;;;;;;5030377;28;20086;-66
2022/08/23 00:12:07;;;;;;;7.43;3.63;;;18.00;99.90;;;;;;5031094;28;20041;-66
2022/08/23 00:14:36;;;;;;;10.82;3.90;;;18.00;99.90;;;;;;5029715;28;20148;-66
2022/08/23 00:17:04;;;;;;;13.82;3.83;;;18.00;99.90;;;;;;5029846;28;20056;-66
2022/08/23 00:19:30;;;;;;;7.47;3.85;;;18.00;99.90;;;;;;5028916;28;20021;-66
2022/08/23 00:21:55;;;;;;;11.90;3.83;;;17.90;99.90;;;;;;5029538;28;20029;-66
2022/08/23 00:24:23;;;;;;;10.00;4.05;;;17.90;99.90;;;;;;5027516;28;20033;-66
2022/08/23 00:27:13;;;;;;;10.50;5.05;;;17.90;99.90;;;;;;5034408;28;20116;-66
2022/08/23 00:29:44;;;;;;;15.70;4.13;;;17.80;99.90;;;;;;5023313;28;20432;-66
2022/08/23 00:32:13;;;;;;;7.25;4.03;;;17.80;99.90;;;;;;5026738;28;20025;-66
2022/08/23 00:34:39;;;;;;;9.88;4.20;;;17.80;99.90;;;;;;5032573;28;20104;-65
2022/08/23 00:37:07;;;;;;;8.77;3.95;;;17.70;99.90;;;;;;5032014;28;20036;-65
2022/08/23 00:39:32;;;;;;;11.38;4.10;;;17.60;99.90;;;;;;5031927;28;20466;-65
2022/08/23 00:47:46;;;;;;;11.88;4.78;;;17.50;99.90;;;;;;5034393;28;20040;-64
2022/08/23 00:50:41;;;;;;;12.13;4.68;;;17.40;99.90;;;;;;5030579;28;20549;-64
2022/08/23 00:53:11;;;;;;;7.78;4.38;;;17.30;99.90;;;;;;5025977;28;20049;-65
2022/08/23 00:55:39;;;;;;;10.27;5.10;;;17.30;99.90;;;;;;5027988;28;20120;-65
2022/08/23 00:58:06;;;;;;;14.82;5.30;;;17.30;99.90;;;;;;5027056;28;20120;-64
2022/08/23 01:00:32;;;;;;;9.93;5.10;;;17.20;99.90;;;;;;5028239;28;20044;-65
2022/08/23 01:02:58;;;;;;;9.57;3.85;;;17.20;99.90;;;;;;5027998;28;20410;-65
2022/08/23 01:05:31;;;;;;;15.20;4.10;;;17.30;99.90;;;;;;5027181;28;20540;-65
2022/08/23 01:07:58;;;;;;;7.85;3.95;;;17.40;99.90;;;;;;5028510;28;20022;-65
2022/08/23 01:10:40;;;;;;;15.48;4.78;;;17.30;99.90;;;;;;5030934;28;20442;-65
2022/08/23 01:13:11;;;;;;;13.20;4.75;;;17.20;99.90;;;;;;5026064;28;20112;-65
2022/08/23 01:15:50;;;;;;;12.85;4.68;;;17.20;99.90;;;;;;5030579;28;20048;-65
2022/08/23 01:18:20;;;;;;;9.25;4.43;;;17.20;99.90;;;;;;5025893;28;20112;-65
2022/08/23 01:20:48;;;;;;;8.38;4.65;;;17.10;99.90;;;;;;5027305;28;20068;-65
2022/08/23 01:23:24;;;;;;;12.65;4.32;;;17.10;99.90;;;;;;5027206;28;20113;-65
2022/08/23 01:25:50;;;;;;;8.30;4.32;;;17.00;99.90;;;;;;5031319;28;20072;-65
2022/08/23 01:28:17;;;;;;;9.18;4.47;;;17.00;99.90;;;;;;5028831;28;20108;-65
2022/08/23 01:30:45;;;;;;;9.73;4.15;;;17.00;99.90;;;;;;5029108;28;20503;-65
2022/08/23 01:33:10;;;;;;;14.60;4.72;;;16.90;99.90;;;;;;5026613;28;20546;-65
2022/08/23 01:35:41;;;;;;;12.20;5.28;;;16.90;99.90;;;;;;5027763;28;20108;-65
2022/08/23 01:38:07;;;;;;;7.50;4.40;;;16.80;99.90;;;;;;5026064;28;20065;-65
2022/08/23 01:40:36;;;;;;;7.43;4.78;;;16.80;99.90;;;;;;5028375;28;20037;-65
2022/08/23 01:43:02;;;;;;;16.48;4.57;;;16.70;99.90;;;;;;5025923;28;20483;-65
2022/08/23 01:45:29;;;;;;;9.40;4.78;;;16.70;99.90;;;;;;5028489;28;20032;-65
2022/08/23 01:47:55;;;;;;;9.02;4.22;;;16.60;99.90;;;;;;5030310;28;20022;-65
2022/08/23 01:50:20;;;;;;;7.43;5.22;;;16.60;99.90;;;;;;5028296;28;20060;-64
2022/08/23 01:52:46;;;;;;;9.50;4.85;;;16.60;99.90;;;;;;5029625;28;20025;-64
2022/08/23 01:55:12;;;;;;;7.03;4.65;;;16.60;99.90;;;;;;5030402;28;20079;-65
2022/08/23 01:57:40;;;;;;;13.00;5.47;;;16.60;99.90;;;;;;5030142;28;20052;-65
2022/08/23 02:00:07;;;;;;;12.13;5.03;;;16.60;99.90;;;;;;5027140;28;20029;-65
2022/08/23 02:02:32;;;;;;;12.52;4.68;;;16.60;99.90;;;;;;5029418;28;21296;-66
2022/08/23 02:04:58;;;;;;;12.57;4.82;;;16.60;99.90;;;;;;5030170;28;20025;-65
2022/08/23 02:07:27;;;;;;;8.38;4.50;;;16.70;99.90;;;;;;5031320;28;20032;-64
2022/08/23 02:09:53;;;;;;;9.30;5.32;;;16.70;99.90;;;;;;5030431;28;20033;-65
2022/08/23 02:12:19;;;;;;;10.82;5.05;;;16.60;99.90;;;;;;5027910;28;20660;-65
2022/08/23 02:14:45;;;;;;;12.57;4.97;;;16.60;99.90;;;;;;5028089;28;20101;-66
2022/08/23 02:17:10;;;;;;;11.43;5.22;;;16.60;99.90;;;;;;5031417;28;20037;-65
2022/08/23 02:19:37;;;;;;;11.90;4.60;;;16.60;99.90;;;;;;5029731;28;20395;-65
2022/08/23 02:22:05;;;;;;;6.13;4.88;;;16.50;99.90;;;;;;5028878;28;20041;-65
2022/08/23 02:24:31;;;;;;;18.38;5.65;;;16.50;99.90;;;;;;5029066;28;20095;-65
2022/08/23 02:27:01;;;;;;;11.30;5.78;;;16.50;99.90;;;;;;5029203;28;20026;-65
2022/08/23 02:29:30;;;;;;;10.10;4.97;;;16.40;99.90;;;;;;5028116;28;20029;-65
2022/08/23 02:31:57;;;;;;;13.68;6.57;;;16.40;99.90;;;;;;5027829;28;20033;-66
2022/08/23 02:34:24;;;;;;;10.40;6.43;;;16.30;99.90;;;;;;5028685;28;20391;-65
2022/08/23 02:36:49;;;;;;;12.32;5.95;;;16.30;99.90;;;;;;5030036;28;20022;-65
2022/08/23 02:39:16;;;;;;;10.77;5.50;;;16.20;99.90;;;;;;5027192;28;20037;-65
2022/08/23 02:41:42;;;;;;;10.25;5.60;;;16.20;99.90;;;;;;5039753;28;20380;-65
2022/08/23 02:44:09;;;;;;;10.25;5.65;;;16.20;99.90;;;;;;5022825;28;20032;-65
2022/08/23 02:46:36;;;;;;;10.68;6.35;;;16.20;99.90;;;;;;5019053;28;20014;-65
2022/08/23 02:49:01;;;;;;;9.52;5.57;;;16.20;99.90;;;;;;5025265;28;20029;-65
2022/08/23 02:51:27;;;;;;;8.57;5.22;;;16.10;99.90;;;;;;5020792;28;20030;-65
2022/08/23 02:53:52;;;;;;;12.60;5.20;;;16.10;99.90;;;;;;5024592;28;20026;-65
2022/08/23 02:56:19;;;;;;;11.65;6.07;;;16.10;99.90;;;;;;5020214;28;20097;-64
2022/08/23 02:58:45;;;;;;;10.68;5.70;;;16.00;99.90;;;;;;5027266;28;20033;-65
2022/08/23 03:01:19;;;;;;;9.13;5.25;;;16.10;99.90;;;;;;5018429;28;20120;-65
2022/08/23 03:03:44;;;;;;;9.50;5.30;;;16.10;99.90;;;;;;5025216;28;20030;-64
2022/08/23 03:06:11;;;;;;;13.27;6.32;;;16.00;99.90;;;;;;5029114;28;20083;-65
2022/08/23 03:08:37;;;;;;;17.67;6.93;;;16.00;99.90;;;;;;5029419;28;20376;-65
2022/08/23 03:11:14;;;;;;;10.02;6.18;;;16.00;99.90;;;;;;5024912;28;20087;-65
2022/08/23 03:13:41;;;;;;;9.98;5.57;;;15.90;99.90;;;;;;5027145;28;20169;-64
2022/08/23 03:16:08;;;;;;;9.10;5.55;;;16.00;99.90;;;;;;5023984;28;20029;-65
2022/08/23 03:18:35;;;;;;;9.52;5.57;;;15.90;99.90;;;;;;5027466;28;20032;-64
2022/08/23 03:21:02;;;;;;;10.68;6.22;;;15.90;99.90;;;;;;5026074;28;20030;-65
2022/08/23 03:23:28;;;;;;;13.93;7.53;;;15.90;99.90;;;;;;5025300;28;20411;-64
2022/08/23 03:25:58;;;;;;;15.63;6.28;;;15.90;99.90;;;;;;5021174;28;20034;-65
2022/08/23 03:28:25;;;;;;;9.27;5.80;;;15.90;99.90;;;;;;5030110;28;20034;-64
2022/08/23 03:30:50;;;;;;;8.80;5.57;;;15.90;99.90;;;;;;5024154;28;20254;-64
2022/08/23 03:33:17;;;;;;;9.90;5.65;;;15.80;99.90;;;;;;5023773;28;20028;-64
2022/08/23 03:35:43;;;;;;;11.05;6.13;;;15.80;99.90;;;;;;5024397;28;20116;-65
2022/08/23 03:38:09;;;;;;;12.93;6.47;;;15.80;99.90;;;;;;5023522;28;20406;-64
2022/08/23 03:40:35;;;;;;;11.07;6.22;;;15.70;99.90;;;;;;5026695;28;20026;-65
2022/08/23 03:43:01;;;;;;;10.85;6.22;;;15.60;99.90;;;;;;5026987;28;20110;-65
2022/08/23 03:45:27;;;;;;;14.75;6.90;;;15.60;99.90;;;;;;5023518;28;20037;-65
2022/08/23 03:47:53;;;;;;;12.48;6.95;;;15.50;99.90;;;;;;5027395;28;20605;-65
2022/08/23 03:50:19;;;;;;;17.48;6.40;;;15.50;99.90;;;;;;5024922;28;20479;-65
2022/08/23 03:52:45;;;;;;;11.57;5.53;;;15.50;99.90;;;;;;5035113;28;20391;-65
2022/08/23 03:55:12;;;;;;;13.65;6.50;;;15.50;99.90;;;;;;5027600;28;20033;-65
2022/08/23 03:57:37;;;;;;;16.83;6.38;;;15.50;99.90;;;;;;5031847;28;20151;-65
2022/08/23 04:00:06;;;;;;;14.13;6.05;;;15.50;99.90;;;;;;5034976;28;20108;-64
2022/08/23 04:02:31;;;;;;;9.60;6.28;;;15.50;99.90;;;;;;5023378;28;20037;-65
2022/08/23 04:04:57;;;;;;;13.20;6.57;;;15.50;99.90;;;;;;5027003;28;20030;-65
2022/08/23 04:07:23;;;;;;;10.38;6.28;;;15.50;99.90;;;;;;5025119;28;20033;-65
2022/08/23 04:09:49;;;;;;;17.23;7.20;;;15.50;99.90;;;;;;5024031;28;20096;-70
2022/08/23 04:12:14;;;;;;;12.55;5.75;;;15.40;99.90;;;;;;5022405;28;20037;-65
2022/08/23 04:14:40;;;;;;;15.25;6.80;;;15.40;99.90;;;;;;5022061;28;20103;-65
2022/08/23 04:17:05;;;;;;;13.02;6.43;;;15.40;99.90;;;;;;5032045;28;20020;-65
2022/08/23 04:19:31;;;;;;;12.52;6.82;;;15.40;99.90;;;;;;5027595;28;20048;-65
2022/08/23 04:21:57;;;;;;;13.93;6.60;;;15.40;99.90;;;;;;5051104;22;20428;-59
2022/08/23 04:24:23;;;;;;;10.30;6.50;;;15.30;99.90;;;;;;5039950;28;20036;-56
2022/08/23 04:26:48;;;;;;;13.10;7.15;;;15.30;99.90;;;;;;5053262;28;20509;-59
2022/08/23 04:29:16;;;;;;;12.15;6.45;;;15.30;99.90;;;;;;5054014;28;20028;-59
2022/08/23 04:31:43;;;;;;;11.63;6.72;;;15.30;99.90;;;;;;5044510;28;20032;-56
2022/08/23 04:34:09;;;;;;;16.40;6.55;;;15.20;99.90;;;;;;5050680;28;20025;-59
2022/08/23 04:36:37;;;;;;;13.02;6.95;;;15.30;99.90;;;;;;5050340;28;20032;-56
2022/08/23 04:39:04;;;;;;;11.85;6.85;;;15.30;99.90;;;;;;5049817;28;20487;-58
2022/08/23 04:44:14;;;;;;;11.95;7.30;;;15.20;99.90;;;;;;5050185;28;20024;-59
2022/08/23 04:46:40;;;;;;;13.43;6.95;;;15.20;99.90;;;;;;5046542;28;20437;-59
2022/08/23 04:49:05;;;;;;;13.48;7.93;;;15.20;99.90;;;;;;5045675;28;20083;-59
2022/08/23 04:51:31;;;;;;;11.93;6.85;;;15.20;99.90;;;;;;5046261;28;20034;-59
2022/08/23 04:53:57;;;;;;;13.80;6.82;;;15.20;99.90;;;;;;5040024;28;20055;-59
2022/08/23 04:56:22;;;;;;;14.10;8.15;;;15.20;99.90;;;;;;5043113;28;20040;-56
2022/08/23 04:58:48;;;;;;;8.63;6.43;;;15.30;99.90;;;;;;5040268;28;20029;-58
2022/08/23 05:01:15;;;;;;;14.30;8.15;;;15.20;99.90;;;;;;5041718;28;20052;-58
2022/08/23 05:03:41;;;;;;;14.27;7.07;;;15.30;99.90;;;;;;5042586;28;20032;-59
2022/08/23 05:06:06;;;;;;;20.80;7.18;;;15.30;99.90;;;;;;5042508;28;20026;-59
2022/08/23 05:08:33;;;;;;;11.75;7.15;;;15.30;99.90;;;;;;5041644;28;20048;-59
2022/08/23 05:11:03;;;;;;;18.58;7.60;;;15.30;99.90;;;;;;5047050;28;20025;-58
2022/08/23 05:13:31;;;;;;;20.60;7.88;;;15.40;99.90;;;;;;5044705;28;20376;-59
2022/08/23 05:15:57;;;;;;;16.10;7.63;;;15.40;99.90;;;;;;5047502;28;20021;-60
2022/08/23 05:18:25;;;;;;;16.00;7.25;;;15.40;99.90;;;;;;5039911;28;20029;-59
2022/08/23 05:20:51;;;;;;;20.27;8.02;;;15.50;99.90;;;;;;5046414;28;20033;-59
2022/08/23 05:23:16;;;;;;;12.05;7.28;;;15.50;99.90;;;;;;5041620;28;20040;-59
2022/08/23 05:25:48;;;;;;;15.60;7.68;;;15.60;99.90;;;;;;5044261;28;20033;-59
2022/08/23 05:28:22;;;;;;;15.88;7.60;;;15.60;99.90;;;;;;5042543;28;20108;-56
2022/08/23 05:30:56;;;;;;;;;;;15.70;99.90;;;;;;5041614;28;20065;-59
2022/08/23 05:33:22;;;;;;;17.75;9.00;;;15.70;99.90;;;;;;5043815;28;19913;-58
2022/08/23 05:35:47;;;;;;;17.50;7.45;;;15.80;99.90;;;;;;5040186;28;20041;-59
2022/08/23 05:38:13;;;;;;;14.57;6.93;;;15.80;99.90;;;;;;5046338;28;20415;-59
2022/08/23 05:40:38;;;;;;;12.68;6.82;;;15.90;99.90;;;;;;5047079;28;20037;-58
2022/08/23 05:43:04;;;;;;;21.33;7.43;;;16.00;99.90;;;;;;5049363;28;20036;-58
2022/08/23 05:45:29;;;;;;;14.65;7.45;;;16.10;99.90;;;;;;5042840;28;20037;-58
2022/08/23 05:47:55;;;;;;;15.50;6.85;;;16.20;99.90;;;;;;5047051;28;20032;-59
2022/08/23 05:50:21;;;;;;;8.98;6.05;;;16.30;99.90;;;;;;5038546;28;20025;-58
2022/08/23 05:52:47;;;;;;;18.17;6.53;;;16.50;99.90;;;;;;5045342;28;20499;-58
2022/08/23 05:55:12;;;;;;;17.23;7.22;;;16.70;99.90;;;;;;5050973;28;20037;-59
2022/08/23 05:57:38;;;;;;;12.82;6.47;;;16.80;99.90;;;;;;5032109;28;20033;-59
2022/08/23 06:00:10;;;;;;;13.38;7.20;;;17.00;99.90;;;;;;5041026;28;20063;-53
2022/08/23 06:02:36;;;;;;;15.35;7.25;;;17.10;99.90;;;;;;5043067;28;20025;-53
2022/08/23 06:05:01;;;;;;;17.73;6.80;;;17.30;99.90;;;;;;5045005;28;20040;-56
2022/08/23 06:07:27;;;;;;;19.23;5.78;;;17.50;99.90;;;;;;5045119;28;20017;-52
2022/08/23 06:09:54;;;;;;;10.18;5.57;;;17.70;99.90;;;;;;5048641;28;20029;-53
2022/08/23 06:12:20;;;;;;;14.02;5.55;;;17.80;99.90;;;;;;5023351;28;20108;-52
2022/08/23 06:14:45;;;;;;;9.18;5.13;;;18.00;99.90;;;;;;4986252;28;20494;-53
2022/08/23 06:17:11;;;;;;;12.73;4.95;;;18.10;99.90;;;;;;5045210;28;20052;-53
2022/08/23 06:19:36;;;;;;;10.70;5.00;;;18.30;99.90;;;;;;5046411;28;20159;-51
2022/08/23 06:22:02;;;;;;;16.83;5.78;;;18.50;99.90;;;;;;5041160;28;20037;-51
2022/08/23 06:24:28;;;;;;;18.40;7.90;;;18.60;99.90;;;;;;5039035;28;20081;-51
2022/08/23 06:26:54;;;;;;;12.27;5.20;;;18.70;99.90;;;;;;5037571;28;20052;-53
2022/08/23 06:29:20;;;;;;;11.50;5.30;;;18.90;99.90;;;;;;5039004;28;20025;-52
2022/08/23 06:31:48;;;;;;;8.65;5.13;;;18.90;99.90;;;;;;5041492;28;20115;-56
2022/08/23 06:34:32;;;;;;;13.55;5.45;;;19.10;99.90;;;;;;5045268;28;20133;-55
2022/08/23 06:37:01;;;;;;;8.88;4.32;;;19.10;99.90;;;;;;5042940;28;20056;-52
2022/08/23 06:39:29;;;;;;;10.73;5.07;;;19.20;99.90;;;;;;5038501;28;20017;-54
2022/08/23 06:42:16;;;;;;;10.43;5.25;;;19.30;99.90;;;;;;5024601;28;20558;-54
2022/08/23 06:44:42;;;;;;;13.57;5.43;;;19.40;99.90;;;;;;5047749;28;20029;-55
2022/08/23 06:47:09;;;;;;;13.45;5.20;;;19.40;99.90;;;;;;5040987;28;20167;-57
2022/08/23 06:49:35;;;;;;;11.13;5.13;;;19.50;99.90;;;;;;5024752;28;20068;-55
2022/08/23 06:52:03;;;;;;;10.20;5.43;;;19.60;99.90;;;;;;5045694;28;20072;-53
2022/08/23 06:54:31;;;;;;;10.95;4.70;;;19.70;99.90;;;;;;5032350;28;20099;-57
2022/08/23 06:56:59;;;;;;;10.05;4.35;;;19.80;99.90;;;;;;5029064;28;20021;-57
2022/08/23 06:59:26;;;;;;;13.95;4.28;;;19.90;99.90;;;;;;5054315;28;20028;-54
2022/08/23 07:01:55;;;;;;;17.13;5.05;;;20.00;99.90;;;;;;5042426;28;20021;-54
2022/08/23 07:04:33;;;;;;;11.48;4.45;;;20.20;99.90;;;;;;5044270;28;20355;-55
2022/08/23 07:07:00;;;;;;;8.77;4.18;;;20.30;99.90;;;;;;5022945;28;20080;-55
2022/08/23 07:09:27;;;;;;;12.65;5.65;;;20.30;99.90;;;;;;5022486;28;20006;-52
2022/08/23 07:11:53;;;;;;;11.38;4.53;;;20.40;99.90;;;;;;5052718;28;20025;-53
2022/08/23 07:14:20;;;;;;;9.60;4.68;;;20.50;99.90;;;;;;5037385;28;20025;-54
2022/08/23 07:16:52;;;;;;;8.02;3.72;;;20.50;99.90;;;;;;5018500;28;20024;-55
2022/08/23 07:19:20;;;;;;;6.97;4.25;;;20.60;99.90;;;;;;5033718;28;20028;-53
2022/08/23 07:21:46;;;;;;;12.50;4.78;;;20.70;99.90;;;;;;5050412;28;20044;-54
2022/08/23 07:24:13;;;;;;;12.32;4.55;;;20.80;99.90;;;;;;5025175;28;20502;-53
2022/08/23 07:26:40;;;;;;;11.02;4.70;;;20.90;99.90;;;;;;5022610;28;20425;-54
2022/08/23 07:29:07;;;;;;;16.63;4.32;;;21.00;99.90;;;;;;5030544;28;20029;-52
2022/08/23 07:31:37;;;;;;;11.25;4.20;;;21.10;99.90;;;;;;5036164;28;20082;-56
2022/08/23 07:34:05;;;;;;;13.07;3.90;;;21.10;99.90;;;;;;5031697;28;20025;-54
2022/08/23 07:36:32;;;;;;;10.07;4.72;;;21.20;99.90;;;;;;5012328;28;20032;-55
2022/08/23 07:38:59;;;;;;;5.95;3.30;;;21.20;99.90;;;;;;5030660;28;20017;-56
2022/08/23 07:41:28;;;;;;;11.15;3.83;;;21.20;99.90;;;;;;5014797;28;20092;-55
2022/08/23 07:43:55;;;;;;;7.90;3.28;;;21.30;99.90;;;;;;5032565;28;20031;-51
2022/08/23 07:46:20;;;;;;;9.98;3.85;;;21.30;99.90;;;;;;5047906;28;20039;-54
2022/08/23 07:48:46;;;;;;;10.93;3.83;;;21.30;99.90;;;;;;5026837;28;20037;-52
2022/08/23 07:51:13;;;;;;;11.23;3.63;;;21.40;99.90;;;;;;5043159;28;20375;-51
2022/08/23 07:53:39;;;;;;;10.13;3.80;;;21.50;99.90;;;;;;5041934;28;20037;-52
2022/08/23 07:56:07;;;;;;;7.47;3.40;;;21.60;99.90;;;;;;5047227;28;20038;-51
2022/08/23 07:58:32;;;;;;;7.55;3.03;;;21.60;99.90;;;;;;5042104;28;20106;-53
2022/08/23 08:01:34;;;;;;;13.85;3.65;;;21.70;99.90;;;;;;5019773;28;20089;-51
2022/08/23 08:04:01;;;;;;;20.00;4.72;;;21.80;99.90;;;;;;5036361;28;20046;-50
2022/08/23 08:06:33;;;;;;;6.70;3.45;;;21.80;99.90;;;;;;5038141;28;20029;-54
2022/08/23 08:09:00;;;;;;;13.10;4.38;;;21.80;99.90;;;;;;5041484;28;20021;-55
2022/08/23 08:11:28;;;;;;;11.32;4.10;;;21.90;99.90;;;;;;5020698;28;20471;-54
2022/08/23 08:13:55;;;;;;;12.52;3.40;;;21.90;99.90;;;;;;5040680;28;20113;-50
2022/08/23 08:16:25;;;;;;;15.48;4.30;;;22.00;99.90;;;;;;5041903;28;20169;-54
2022/08/23 08:18:52;;;;;;;8.05;3.65;;;22.00;99.90;;;;;;5043495;28;20051;-52
2022/08/23 08:21:18;;;;;;;10.82;4.15;;;22.20;99.90;;;;;;5043085;28;20085;-51
2022/08/23 08:23:43;;;;;;;11.82;3.70;;;22.20;99.90;;;;;;5038652;28;20037;-52
2022/08/23 08:26:10;;;;;;;10.40;3.50;;;22.30;99.90;;;;;;5041215;28;20044;-51
2022/08/23 08:28:36;;;;;;;9.80;3.67;;;22.40;99.90;;;;;;5045752;28;20018;-51
2022/08/23 08:31:03;;;;;;;9.60;3.90;;;22.50;99.90;;;;;;5042237;28;20021;-51
2022/08/23 08:33:29;;;;;;;11.60;4.53;;;22.60;99.90;;;;;;5037875;28;20036;-51
2022/08/23 08:35:56;;;;;;;10.63;3.83;;;22.70;99.90;;;;;;5021247;28;20376;-54
2022/08/23 08:38:22;;;;;;;13.55;3.92;;;22.80;99.90;;;;;;5042245;28;20033;-53
2022/08/23 08:40:59;;;;;;;8.18;4.18;;;22.90;99.90;;;;;;5024198;28;20120;-53
2022/08/23 08:43:41;;;;;;;8.25;3.53;;;22.90;99.90;;;;;;5043308;28;20075;-54
2022/08/23 08:46:40;;;;;;;8.43;3.47;;;23.00;99.90;;;;;;5020729;28;20033;-53
2022/08/23 08:49:08;;;;;;;8.60;3.78;;;23.00;99.90;;;;;;5022548;28;20079;-56
2022/08/23 08:51:47;;;;;;;11.35;4.15;;;23.30;99.90;;;;;;5025811;28;20021;-54
2022/08/23 08:54:17;;;;;;;11.50;4.05;;;23.40;99.90;;;;;;5020662;28;20027;-50
2022/08/23 08:56:47;;;;;;;17.80;5.30;;;23.60;99.90;;;;;;5038934;28;20029;-52
2022/08/23 08:59:22;;;;;;;13.57;4.72;;;23.70;99.90;;;;;;5044966;28;20120;-51
2022/08/23 09:01:49;;;;;;;12.32;4.55;;;23.80;99.90;;;;;;5035829;28;20029;-54
2022/08/23 09:04:14;;;;;;;12.75;4.57;;;23.90;99.90;;;;;;5039900;28;20455;-54
2022/08/23 09:06:59;;;;;;;16.17;4.93;;;23.90;99.90;;;;;;5000700;28;20104;-52
2022/08/23 09:09:43;;;;;;;12.45;3.97;;;24.00;99.90;;;;;;5041198;28;20021;-51
2022/08/23 09:12:37;;;;;;;20.73;5.43;;;24.20;99.90;;;;;;5032624;28;20052;-53
2022/08/23 09:15:14;;;;;;;7.30;4.10;;;24.30;99.90;;;;;;5035829;28;20422;-55
2022/08/23 09:17:47;;;;;;;10.27;4.38;;;24.50;99.90;;;;;;5041180;28;20033;-54
2022/08/23 09:20:15;;;;;;;10.93;4.32;;;24.70;99.90;;;;;;5037375;28;20679;-51
2022/08/23 09:22:50;;;;;;;13.32;3.88;;;24.80;99.90;;;;;;5033238;28;20041;-53
2022/08/23 09:25:18;;;;;;;18.48;5.13;;;24.80;99.90;;;;;;5033109;28;20062;-53
2022/08/23 09:27:44;;;;;;;10.05;4.57;;;25.00;99.90;;;;;;5044718;28;20115;-52
2022/08/23 09:30:16;;;;;;;13.07;3.60;;;25.00;99.90;;;;;;5041219;28;20495;-54
2022/08/23 09:32:44;;;;;;;15.82;4.25;;;25.10;99.90;;;;;;5035582;28;20029;-53
2022/08/23 09:35:17;;;;;;;11.90;4.25;;;25.20;99.90;;;;;;5035442;28;20029;-54
2022/08/23 09:37:47;;;;;;;11.77;3.95;;;25.40;99.90;;;;;;5036666;28;20072;-55
2022/08/23 09:40:33;;;;;;;14.07;4.53;;;25.50;99.90;;;;;;5046933;28;20028;-53
2022/08/23 09:43:18;;;;;;;14.48;4.43;;;25.50;99.90;;;;;;5031044;28;20033;-53
2022/08/23 09:45:47;;;;;;;8.27;3.40;;;25.70;99.90;;;;;;5043581;28;20415;-55
2022/08/23 09:48:28;;;;;;;13.80;3.67;;;25.80;99.90;;;;;;5038327;28;20040;-55
2022/08/23 09:50:54;;;;;;;8.13;3.28;;;26.00;99.90;;;;;;5028580;28;20046;-53
2022/08/23 09:53:26;;;;;;;9.70;3.40;;;26.10;99.90;;;;;;5036643;28;20026;-54
2022/08/23 09:55:56;;;;;;;11.80;2.78;;;26.20;99.90;;;;;;5042188;28;20145;-54
2022/08/23 09:58:40;;;;;;;10.15;3.35;;;26.30;99.90;;;;;;5037704;28;20017;-54
2022/08/23 10:01:15;;;;;;;;;;;26.50;99.90;;;;;;5038175;28;20024;-53
2022/08/23 10:03:41;;;;;;;6.32;2.67;;;26.70;99.90;;;;;;5028342;28;19936;-52
2022/08/23 10:06:09;;;;;;;13.10;2.85;;;27.00;99.90;;;;;;5032780;28;20205;-53
2022/08/23 10:08:49;;;;;;;12.30;2.53;;;27.20;99.90;;;;;;5030307;28;20026;-53
2022/08/23 10:11:26;;;;;;;8.55;2.75;;;27.30;99.90;;;;;;5028569;28;20487;-54
2022/08/23 10:13:52;;;;;;;10.40;4.15;;;27.20;99.90;;;;;;5045585;28;20041;-55
2022/08/23 10:16:54;;;;;;;9.82;2.80;;;27.40;99.90;;;;;;5038588;28;20037;-54
2022/08/23 10:19:41;;;;;;;4.50;2.33;;;27.40;99.90;;;;;;5043809;28;20071;-52
2022/08/23 10:22:20;;;;;;;12.82;3.67;;;27.60;99.90;;;;;;5033441;28;20038;-54
2022/08/23 10:25:18;;;;;;;8.60;2.78;;;27.90;99.90;;;;;;5045864;28;20494;-52
2022/08/23 10:30:40;;;;;;;13.55;2.50;;;28.40;99.90;;;;;;5043918;28;20055;-54
2022/08/23 10:33:18;;;;;;;8.10;2.33;;;28.80;99.90;;;;;;5040778;28;20078;-55
2022/08/23 10:35:57;;;;;;;11.98;2.47;;;29.00;99.90;;;;;;5039349;28;20030;-52
2022/08/23 10:38:56;;;;;;;9.48;2.55;;;29.30;99.90;;;;;;5035350;28;20036;-53
2022/08/23 10:41:59;;;;;;;10.20;2.67;;;29.50;99.90;;;;;;5040266;28;20132;-55
2022/08/23 10:45:07;;;;;;;8.07;2.22;;;29.60;99.90;;;;;;5037522;28;20076;-53
2022/08/23 10:47:40;;;;;;;5.90;2.40;;;29.70;99.90;;;;;;5035426;28;20595;-54
2022/08/23 10:50:11;;;;;;;9.17;2.23;;;29.80;99.90;;;;;;5046408;28;20483;-51
2022/08/23 10:52:47;;;;;;;4.18;2.28;;;29.70;99.90;;;;;;5043895;28;20487;-52
2022/08/23 10:55:33;;;;;;;5.03;2.00;;;29.90;99.90;;;;;;5037823;28;20044;-55
2022/08/23 11:00:40;;;;;;;5.13;1.73;;;30.20;99.90;;;;;;5031145;28;20048;-63
2022/08/23 11:03:36;;;;;;;6.57;2.53;;;30.50;99.90;;;;;;5026259;28;20105;-64
2022/08/23 11:06:23;;;;;;;7.38;2.55;;;30.80;99.90;;;;;;5028506;28;20036;-64
2022/08/23 11:09:08;;;;;;;9.02;3.17;;;30.80;99.70;;;;;;5027890;28;20103;-64
2022/08/23 11:11:45;;;;;;;7.93;2.10;;;30.30;99.50;;;;;;5027580;28;20368;-64
2022/08/23 11:14:43;;;;;;;7.65;1.77;;;30.40;99.90;;;;;;5025358;28;20142;-65
2022/08/23 11:17:33;;;;;;;5.53;1.73;;;30.40;99.20;;;;;;5034145;28;20029;-64
2022/08/23 11:20:03;;;;;;;7.30;2.10;;;30.30;98.80;;;;;;5028594;28;20376;-65
2022/08/23 11:22:32;;;;;;;6.03;2.33;;;30.30;99.30;;;;;;5025404;28;20103;-65
2022/08/23 11:24:59;;;;;;;6.82;2.30;;;30.40;99.90;;;;;;5022342;28;20097;-64
2022/08/23 11:27:39;;;;;;;6.72;2.75;;;30.70;98.10;;;;;;5028693;28;20022;-63
2022/08/23 11:30:33;;;;;;;11.63;2.38;;;30.60;98.30;;;;;;5029007;28;20037;-64
2022/08/23 11:33:12;;;;;;;5.63;1.80;;;30.50;98.00;;;;;;5027102;28;20025;-71
2022/08/23 11:35:43;;;;;;;3.55;1.55;;;30.90;97.00;;;;;;5022212;28;20047;-67
2022/08/23 11:38:09;;;;;;;5.55;2.15;;;31.10;96.20;;;;;;5028282;28;20037;-66
2022/08/23 11:41:01;;;;;;;6.70;1.90;;;30.80;95.40;;;;;;5026553;28;20107;-66
2022/08/23 11:43:34;;;;;;;3.95;1.77;;;30.40;96.50;;;;;;5027003;28;20048;-66
2022/08/23 11:46:29;;;;;;;5.38;2.20;;;30.60;96.00;;;;;;5027107;28;20251;-67
2022/08/23 11:49:13;;;;;;;;;;;30.90;95.40;;;;;;5027074;28;20033;-67
2022/08/23 11:52:01;;;;;;;7.45;2.00;;;31.10;95.00;;;;;;5027588;28;19916;-67
2022/08/23 11:54:38;;;;;;;4.68;2.00;;;31.10;94.70;;;;;;5028610;28;20028;-67
2022/08/23 11:57:21;;;;;;;6.95;2.45;;;31.20;94.30;;;;;;5032726;28;20021;-68
2022/08/23 12:00:05;;;;;;;5.85;2.10;;;31.20;94.00;;;;;;5028856;28;20049;-66
2022/08/23 12:02:30;;;;;;;11.07;1.90;;;31.20;93.60;;;;;;5020425;28;20475;-66
2022/08/23 12:05:00;;;;;;;6.05;1.80;;;31.30;93.90;;;;;;5024905;28;20040;-70
2022/08/23 12:08:19;;;;;;;6.93;2.78;;;31.30;93.30;;;;;;5022778;28;20128;-68
2022/08/23 12:10:45;;;;;;;13.73;2.25;;;30.90;93.90;;;;;;5019293;28;20149;-69
2022/08/23 12:13:19;;;;;;;10.43;2.13;;;31.20;94.00;;;;;;5019783;28;20129;-70
2022/08/23 12:16:07;;;;;;;3.70;2.42;;;31.40;93.60;;;;;;5016281;28;20038;-68
2022/08/23 12:18:36;;;;;;;7.20;2.00;;;31.60;93.30;;;;;;5018446;28;20155;-67
2022/08/23 12:21:04;;;;;;;5.13;1.92;;;31.90;92.80;;;;;;5019094;28;20038;-69
2022/08/23 12:23:41;;;;;;;8.20;1.98;;;32.10;92.00;;;;;;5020944;28;20037;-67
2022/08/23 12:26:25;;;;;;;8.95;2.13;;;32.00;91.70;;;;;;5026799;28;20116;-68
2022/08/23 12:29:00;;;;;;;8.10;2.78;;;31.70;91.80;;;;;;5024131;28;20040;-67
2022/08/23 12:31:45;;;;;;;7.95;2.60;;;31.80;91.50;;;;;;5022207;28;20021;-66
2022/08/23 12:34:34;;;;;;;5.32;1.83;;;31.70;91.50;;;;;;5016860;28;21743;-67
2022/08/23 12:37:24;;;;;;;8.90;1.90;;;32.10;91.70;;;;;;5018812;28;20064;-70
2022/08/23 12:39:58;;;;;;;7.57;2.08;;;32.40;90.50;;;;;;5009364;28;20042;-70
2022/08/23 12:42:28;;;;;;;7.05;2.60;;;32.50;90.90;;;;;;5018619;28;20064;-66
2022/08/23 12:45:16;;;;;;;9.48;2.00;;;31.80;91.30;;;;;;5019251;28;20087;-69
2022/08/23 12:47:54;;;;;;;4.47;1.75;;;31.10;91.70;;;;;;5021209;28;20025;-67
2022/08/23 12:50:35;;;;;;;7.68;1.85;;;31.20;91.80;;;;;;5021821;28;20056;-67
2022/08/23 12:53:11;;;;;;;4.88;1.52;;;31.50;93.50;;;;;;5014865;28;20038;-70
2022/08/23 12:55:44;;;;;;;5.28;1.80;;;31.60;91.40;;;;;;5015521;28;20022;-70
2022/08/23 12:58:10;;;;;;;5.13;1.50;;;31.70;91.30;;;;;;5019384;28;20125;-70
2022/08/23 13:00:59;;;;;;;6.57;2.13;;;31.10;91.10;;;;;;5015748;28;20033;-67
2022/08/23 13:03:31;;;;;;;5.85;2.33;;;31.60;91.50;;;;;;5007716;28;20045;-67
2022/08/23 13:06:07;;;;;;;11.82;2.05;;;32.20;90.30;;;;;;5022481;28;20083;-69
2022/08/23 13:09:02;;;;;;;5.55;1.38;;;32.50;90.50;;;;;;5014785;28;20542;-70
2022/08/23 13:11:31;;;;;;;8.35;2.30;;;33.30;90.10;;;;;;4999374;28;20042;-68
2022/08/23 13:13:57;;;;;;;6.57;2.17;;;33.70;89.50;;;;;;5025800;28;20022;-66
2022/08/23 13:16:52;;;;;;;10.40;2.47;;;34.20;90.20;;;;;;5019360;28;20510;-67